Time;durP1;ratioP1;P1;durP2;ratioP2;P2;SDS_P1;SDS_P2;PMS_P1;PMS_P2;Temp;Humidity;BMP_temperature;BMP_pressure;BME280_temperature;BME280_humidity;BME280_pressure;Samples;Min_cycle;Max_cycle;Signal;HPM_P1;HPM_P2
2021/10/01 00:00:51;;;;;;;4.87;3.47;;;7.40;83.50;;;6.02;88.25;98828.84;5029754;28;20457;-70
2021/10/01 00:03:18;;;;;;;4.77;4.27;;;7.30;83.50;;;6.14;87.93;98832.88;5029054;28;20454;-71
2021/10/01 00:05:45;;;;;;;4.00;3.60;;;7.40;83.40;;;6.10;87.63;98831.53;5029138;28;20565;-71
2021/10/01 00:08:13;;;;;;;6.43;3.80;;;7.40;83.00;;;6.08;87.70;98825.50;5030772;28;20489;-71
2021/10/01 00:10:40;;;;;;;4.73;3.63;;;7.40;83.30;;;5.98;88.13;98822.09;5028155;28;21004;-71
2021/10/01 00:13:08;;;;;;;4.00;3.63;;;7.30;83.50;;;6.05;87.95;98817.78;5033231;28;20449;-72
2021/10/01 00:15:35;;;;;;;4.10;3.70;;;7.30;83.50;;;6.10;87.98;98815.44;5030635;28;20490;-72
2021/10/01 00:18:04;;;;;;;4.20;3.63;;;7.40;83.80;;;6.11;88.29;98816.28;5030041;28;20462;-72
2021/10/01 00:20:31;;;;;;;5.43;3.50;;;7.40;83.60;;;6.13;88.50;98811.59;5028642;28;20476;-71
2021/10/01 00:22:58;;;;;;;4.23;3.80;;;7.40;83.60;;;6.12;87.99;98813.41;5030094;28;20464;-71
2021/10/01 00:25:26;;;;;;;3.90;3.40;;;7.40;83.50;;;6.04;88.17;98818.78;5044954;28;20486;-71
2021/10/01 00:27:53;;;;;;;3.80;3.43;;;7.30;83.80;;;6.06;88.67;98814.09;5030110;28;20549;-71
2021/10/01 00:30:20;;;;;;;4.80;3.57;;;7.40;83.80;;;5.99;89.03;98810.34;5027261;28;20532;-71
2021/10/01 00:32:48;;;;;;;4.03;3.53;;;7.30;84.00;;;6.05;88.25;98804.38;5032293;28;20541;-71
2021/10/01 00:35:15;;;;;;;4.70;3.70;;;7.40;83.70;;;5.91;87.90;98779.00;5026622;28;20482;-71
2021/10/01 00:37:43;;;;;;;5.17;4.00;;;7.40;83.70;;;5.95;88.60;98804.50;5029246;28;20532;-72
2021/10/01 00:40:12;;;;;;;3.90;3.60;;;7.30;83.70;;;5.91;88.88;98803.97;5029722;28;20462;-72
2021/10/01 00:42:41;;;;;;;3.50;3.20;;;7.30;84.10;;;5.87;88.96;98799.13;5025929;28;20827;-73
2021/10/01 00:45:09;;;;;;;5.10;4.00;;;7.20;83.90;;;5.95;89.16;98789.22;5044079;28;20474;-72
2021/10/01 00:47:36;;;;;;;3.27;3.00;;;7.30;84.10;;;5.92;89.06;98792.25;5030696;28;20473;-72
2021/10/01 00:50:04;;;;;;;3.93;3.30;;;7.20;84.20;;;5.88;89.06;98788.22;5027123;28;20462;-72
2021/10/01 00:52:33;;;;;;;3.60;3.30;;;7.20;83.90;;;5.83;88.90;98795.91;5030356;28;20982;-73
2021/10/01 00:55:01;;;;;;;6.90;3.10;;;7.20;84.00;;;5.81;88.94;98784.53;5027306;28;20985;-72
2021/10/01 00:57:28;;;;;;;4.77;3.57;;;7.20;83.80;;;5.88;88.20;98790.91;5031362;28;20462;-72
2021/10/01 00:59:57;;;;;;;4.40;3.63;;;7.20;83.50;;;5.78;89.37;98783.03;5034702;28;20471;-72
2021/10/01 01:02:24;;;;;;;3.20;2.90;;;7.10;84.10;;;5.76;88.61;98784.19;5026372;28;20490;-71
2021/10/01 01:04:52;;;;;;;4.03;3.40;;;7.10;84.10;;;5.76;88.63;98776.16;5022490;28;21065;-71
2021/10/01 01:07:34;;;;;;;5.40;2.87;;;7.10;84.00;;;5.83;88.34;98779.81;5028541;28;20486;-71
2021/10/01 01:10:08;;;;;;;4.87;3.47;;;7.10;83.80;;;5.74;88.60;98770.94;5029152;28;20975;-70
2021/10/01 01:12:45;;;;;;;3.50;3.20;;;7.10;83.70;;;5.78;88.57;98771.44;5025026;28;20494;-70
2021/10/01 01:15:19;;;;;;;3.43;3.13;;;7.10;83.10;;;5.74;87.86;98772.78;5023151;28;21322;-70
2021/10/01 01:17:53;;;;;;;3.50;3.20;;;7.10;83.30;;;5.77;88.57;98767.09;5027019;28;20503;-70
2021/10/01 01:20:30;;;;;;;5.20;3.10;;;7.10;83.20;;;5.75;87.89;98771.78;5034651;28;20514;-70
2021/10/01 01:23:24;;;;;;;3.50;3.00;;;7.10;82.80;;;5.67;88.62;98762.72;5028134;28;21081;-70
2021/10/01 01:26:12;;;;;;;3.50;3.20;;;7.10;83.10;;;5.68;88.49;98769.75;5042255;28;21006;-70
2021/10/01 01:28:59;;;;;;;3.50;3.20;;;7.00;83.30;;;5.70;88.88;98764.22;5033041;28;20453;-71
2021/10/01 01:31:35;;;;;;;4.87;3.40;;;7.00;83.40;;;5.63;88.43;98766.75;5027093;28;20494;-72
2021/10/01 01:34:04;;;;;;;3.90;3.60;;;7.00;83.80;;;5.59;89.77;98752.00;5028597;28;20544;-72
2021/10/01 01:36:35;;;;;;;4.83;4.30;;;6.90;84.20;;;5.54;89.60;98759.69;5029514;28;20599;-71
2021/10/01 01:39:06;;;;;;;3.93;3.57;;;6.90;84.60;;;5.49;89.84;98748.63;5044538;28;20489;-71
2021/10/01 01:41:34;;;;;;;4.90;4.00;;;6.80;84.80;;;5.39;89.84;98752.31;5027795;28;21042;-71
2021/10/01 01:44:02;;;;;;;4.60;3.70;;;6.80;84.90;;;5.41;90.69;98748.63;5027815;28;20483;-71
2021/10/01 01:46:29;;;;;;;4.13;3.73;;;6.70;85.40;;;5.42;90.65;98745.75;5026911;28;20540;-71
2021/10/01 01:48:57;;;;;;;4.00;3.70;;;6.70;85.40;;;5.41;90.00;98745.94;5033793;28;20557;-71
2021/10/01 01:51:28;;;;;;;3.93;3.30;;;6.70;85.80;;;5.43;89.99;98738.56;5025395;28;20459;-71
2021/10/01 01:53:55;;;;;;;4.80;4.30;;;6.70;85.80;;;5.35;90.85;98742.88;5026018;28;20451;-71
2021/10/01 01:56:24;;;;;;;3.83;3.50;;;6.70;86.10;;;5.32;91.41;98739.72;5025240;28;20513;-71
2021/10/01 01:58:51;;;;;;;5.60;3.80;;;6.70;86.50;;;5.28;90.86;98741.03;5028265;28;20494;-72
2021/10/01 02:01:21;;;;;;;3.70;3.40;;;6.60;86.90;;;5.34;90.75;98741.22;5026701;28;20459;-72
2021/10/01 02:03:49;;;;;;;4.60;4.10;;;6.70;86.80;;;5.31;90.94;98733.50;5026431;28;20533;-71
2021/10/01 02:06:18;;;;;;;4.70;4.30;;;6.60;86.70;;;5.30;91.38;98729.16;5037172;28;20776;-71
2021/10/01 02:08:47;;;;;;;5.03;3.83;;;6.60;86.90;;;5.33;91.16;98731.50;5038942;28;20474;-71
2021/10/01 02:11:15;;;;;;;4.10;3.77;;;6.70;87.10;;;5.33;90.70;98728.00;5027564;28;20494;-72
2021/10/01 02:13:42;;;;;;;3.97;3.67;;;6.70;86.90;;;5.28;91.42;98733.00;5024330;28;20477;-71
2021/10/01 02:16:11;;;;;;;5.53;3.97;;;6.60;86.50;;;5.24;91.44;98727.97;5027097;28;20524;-71
2021/10/01 02:18:41;;;;;;;3.77;3.47;;;6.60;86.80;;;5.23;91.10;98725.44;5026339;28;20475;-71
2021/10/01 02:21:09;;;;;;;4.13;3.83;;;6.60;87.00;;;5.19;91.85;98724.94;5026326;28;20469;-70
2021/10/01 02:23:36;;;;;;;4.03;3.60;;;6.50;87.10;;;5.21;90.78;98727.44;5025775;28;20558;-71
2021/10/01 02:28:58;;;;;;;4.67;4.27;;;6.50;87.10;;;5.10;91.81;98718.72;5023156;28;20871;-72
2021/10/01 02:31:35;;;;;;;4.30;3.90;;;6.50;87.40;;;5.09;91.18;98703.66;5025882;28;20545;-73
2021/10/01 02:34:03;;;;;;;8.70;4.23;;;6.50;87.30;;;5.19;91.84;98714.22;5015446;28;20466;-72
2021/10/01 02:36:31;;;;;;;3.97;3.67;;;6.50;87.50;;;5.19;91.39;98708.88;5021911;28;20498;-72
2021/10/01 02:38:58;;;;;;;4.50;4.10;;;6.50;87.30;;;5.09;91.74;98709.03;5026148;28;20466;-71
2021/10/01 02:41:27;;;;;;;4.20;3.70;;;6.50;87.30;;;5.07;92.32;98705.63;5029818;28;20472;-71
2021/10/01 02:43:54;;;;;;;5.30;3.70;;;6.50;87.80;;;5.05;92.41;98707.66;5029427;28;20743;-71
2021/10/01 02:46:21;;;;;;;4.30;3.90;;;6.50;87.80;;;5.05;91.84;98696.94;5024423;28;20447;-71
2021/10/01 02:48:48;;;;;;;5.80;3.57;;;6.40;88.10;;;5.04;92.21;98711.31;5029501;28;20530;-71
2021/10/01 02:51:20;;;;;;;3.33;3.13;;;6.40;88.00;;;5.07;92.29;98711.00;5029250;28;20516;-72
2021/10/01 02:53:55;;;;;;;3.57;3.27;;;6.40;88.30;;;5.06;92.39;98703.13;5031249;28;20569;-71
2021/10/01 02:56:30;;;;;;;4.03;3.73;;;6.40;88.00;;;5.03;92.39;98706.97;5030840;28;20512;-72
2021/10/01 02:59:03;;;;;;;3.93;3.40;;;6.40;87.90;;;5.01;91.70;98700.94;5028707;28;20489;-72
2021/10/01 03:01:32;;;;;;;4.23;3.60;;;6.40;88.20;;;5.08;91.76;98693.94;5034002;28;20882;-71
2021/10/01 03:04:03;;;;;;;4.13;3.40;;;6.40;88.80;;;5.01;92.39;98698.25;5030080;28;20892;-71
2021/10/01 03:06:34;;;;;;;3.60;3.30;;;6.30;89.10;;;5.00;92.50;98699.28;5032314;28;20450;-72
2021/10/01 03:09:03;;;;;;;3.37;3.10;;;6.30;88.80;;;4.98;92.36;98685.22;5031131;28;20458;-71
2021/10/01 03:11:32;;;;;;;5.80;3.73;;;6.30;88.90;;;4.96;91.93;98682.69;5032496;28;20481;-71
2021/10/01 03:14:02;;;;;;;4.00;3.53;;;6.30;89.00;;;4.96;92.73;98681.84;5031192;28;20962;-70
2021/10/01 03:16:31;;;;;;;7.60;3.80;;;6.30;89.30;;;5.10;91.60;98689.25;5027740;28;20474;-70
2021/10/01 03:18:59;;;;;;;3.80;3.53;;;6.40;89.00;;;5.02;92.57;98685.72;5030417;28;20512;-70
2021/10/01 03:21:26;;;;;;;4.00;3.40;;;6.30;89.20;;;5.04;91.33;98676.50;5045615;28;20537;-70
2021/10/01 03:23:54;;;;;;;5.13;3.60;;;6.40;88.20;;;4.97;92.71;98684.34;5030799;28;20458;-70
2021/10/01 03:26:22;;;;;;;4.00;3.60;;;6.30;88.50;;;4.92;92.38;98675.97;5030577;28;20469;-72
2021/10/01 03:28:51;;;;;;;5.20;3.33;;;6.30;88.80;;;4.89;92.89;98680.81;5030006;28;20467;-70
2021/10/01 03:31:18;;;;;;;4.37;3.97;;;6.30;89.50;;;5.03;91.89;98674.00;5039415;28;20886;-70
2021/10/01 03:33:47;;;;;;;3.87;3.50;;;6.30;89.80;;;5.04;92.37;98671.16;5028579;28;20458;-72
2021/10/01 03:36:14;;;;;;;5.03;3.80;;;6.30;88.90;;;5.03;91.96;98674.84;5026739;28;20463;-72
2021/10/01 03:38:41;;;;;;;4.10;3.40;;;6.30;88.90;;;5.04;91.75;98668.47;5027013;28;20454;-72
2021/10/01 03:41:09;;;;;;;5.00;3.87;;;6.40;88.20;;;5.03;91.67;98665.97;5025663;28;20555;-72
2021/10/01 03:43:36;;;;;;;3.80;3.50;;;6.40;88.00;;;5.03;92.07;98672.16;5025192;28;20489;-72
2021/10/01 03:46:04;;;;;;;7.57;4.13;;;6.30;88.70;;;5.06;91.52;98662.97;5045960;28;21021;-71
2021/10/01 03:48:31;;;;;;;4.10;3.80;;;6.30;88.40;;;5.07;91.51;98660.09;5030784;28;20498;-72
2021/10/01 03:50:58;;;;;;;3.40;3.10;;;6.40;87.90;;;5.04;92.31;98662.28;5026433;28;20545;-71
2021/10/01 03:53:25;;;;;;;3.50;3.20;;;6.40;88.20;;;5.03;91.49;98656.09;5029418;28;20463;-72
2021/10/01 03:55:52;;;;;;;4.33;3.50;;;6.40;87.90;;;5.00;91.52;98655.56;5026976;28;20470;-71
2021/10/01 03:58:19;;;;;;;5.10;3.40;;;6.30;88.20;;;4.95;92.05;98653.41;5028346;28;20568;-69
2021/10/01 04:00:46;;;;;;;4.30;4.00;;;6.30;88.50;;;5.01;91.65;98651.91;5031915;28;21014;-70
2021/10/01 04:03:15;;;;;;;5.43;4.13;;;6.30;88.80;;;4.94;91.52;98657.91;5027322;28;20975;-71
2021/10/01 04:05:42;;;;;;;5.40;3.40;;;6.30;88.40;;;4.96;92.38;98649.72;5043664;28;20485;-70
2021/10/01 04:08:10;;;;;;;4.00;3.70;;;6.20;89.60;;;4.91;91.95;98649.34;5030174;28;20983;-73
2021/10/01 04:10:38;;;;;;;8.20;3.80;;;6.20;89.40;;;4.80;92.96;98651.34;5027396;28;20520;-72
2021/10/01 04:13:07;;;;;;;4.60;4.30;;;6.20;89.50;;;4.87;93.13;98646.19;5027858;28;20468;-71
2021/10/01 04:15:35;;;;;;;4.67;4.27;;;6.20;90.10;;;4.88;93.34;98644.34;5027033;28;20489;-71
2021/10/01 04:18:02;;;;;;;4.03;3.63;;;6.10;90.50;;;4.92;91.96;98643.00;5030579;28;20472;-72
2021/10/01 04:20:33;;;;;;;4.90;4.40;;;6.20;90.00;;;4.94;92.62;98641.00;5043936;28;20458;-71
2021/10/01 04:23:00;;;;;;;4.80;3.40;;;6.20;89.40;;;4.86;92.83;98640.97;5029168;28;20673;-72
2021/10/01 04:25:27;;;;;;;3.83;3.40;;;6.20;89.80;;;4.76;92.64;98628.56;5029929;28;20642;-73
2021/10/01 04:27:54;;;;;;;5.00;3.80;;;6.20;89.60;;;4.92;92.14;98634.97;5031883;28;20513;-73
2021/10/01 04:30:21;;;;;;;4.50;3.67;;;6.20;89.60;;;4.80;92.32;98629.94;5030214;28;20513;-72
2021/10/01 04:32:57;;;;;;;3.70;3.40;;;6.20;89.40;;;4.83;92.80;98628.75;5030064;28;20460;-70
2021/10/01 04:35:24;;;;;;;4.30;3.90;;;6.20;89.00;;;4.86;92.64;98632.94;5029066;28;20482;-72
2021/10/01 04:37:53;;;;;;;5.17;4.07;;;6.20;89.00;;;4.77;92.73;98635.59;5031255;28;20481;-72
2021/10/01 04:40:20;;;;;;;6.30;4.17;;;6.20;89.70;;;4.78;93.16;98637.28;5029435;28;20517;-70
2021/10/01 04:42:47;;;;;;;4.70;3.80;;;6.10;90.10;;;4.82;93.09;98641.31;5042888;28;20455;-72
2021/10/01 04:45:14;;;;;;;5.07;3.90;;;6.10;90.00;;;4.78;92.87;98639.97;5039737;28;20506;-72
2021/10/01 04:47:41;;;;;;;4.50;4.10;;;6.10;89.60;;;4.68;93.26;98639.25;5026514;28;20989;-71
2021/10/01 04:50:09;;;;;;;3.80;3.50;;;6.10;90.00;;;4.71;93.55;98633.56;5026822;28;20486;-71
2021/10/01 04:52:36;;;;;;;5.47;3.33;;;6.10;90.20;;;4.72;93.75;98634.44;5035167;28;20465;-71
2021/10/01 04:55:06;;;;;;;4.33;3.80;;;6.00;90.50;;;4.69;92.65;98638.25;5028001;28;20585;-72
2021/10/01 04:57:33;;;;;;;5.40;4.13;;;6.00;90.10;;;4.77;94.00;98634.75;5045528;28;20451;-71
2021/10/01 05:00:00;;;;;;;6.77;4.37;;;6.10;90.70;;;5.05;94.05;98648.72;5027682;28;20520;-71
2021/10/01 05:02:27;;;;;;;7.10;4.60;;;6.20;91.90;;;4.82;92.70;98635.97;5029111;28;20496;-71
2021/10/01 05:04:57;;;;;;;10.27;4.57;;;6.20;89.40;;;4.71;93.96;98641.59;5025511;28;20474;-72
2021/10/01 05:07:24;;;;;;;5.07;4.57;;;6.10;90.20;;;4.70;93.04;98639.94;5044500;28;20479;-72
2021/10/01 05:09:53;;;;;;;5.30;4.00;;;6.10;90.10;;;4.85;93.41;98637.44;5030456;28;20498;-71
2021/10/01 05:12:21;;;;;;;6.40;4.77;;;6.10;90.80;;;4.81;93.92;98634.28;5033227;28;20461;-73
2021/10/01 05:14:48;;;;;;;4.67;4.27;;;6.20;90.50;;;5.13;93.60;98637.19;5041206;28;20578;-72
2021/10/01 05:17:15;;;;;;;4.63;4.20;;;6.30;91.50;;;4.89;92.87;98648.69;5025006;28;20483;-72
2021/10/01 05:19:42;;;;;;;4.83;4.43;;;6.20;89.30;;;4.87;92.64;98642.66;5026432;28;20557;-71
2021/10/01 05:22:09;;;;;;;4.20;3.90;;;6.20;89.60;;;4.98;93.71;98637.00;5029800;28;21007;-71
2021/10/01 05:24:36;;;;;;;5.20;4.67;;;6.30;90.80;;;5.03;93.09;98645.38;5027447;28;20481;-70
2021/10/01 05:27:04;;;;;;;6.33;3.87;;;6.30;90.20;;;4.94;92.18;98641.00;5028424;28;20458;-72
2021/10/01 05:29:32;;;;;;;5.77;4.20;;;6.30;89.30;;;4.95;92.63;98645.38;5024808;28;20490;-71
2021/10/01 05:31:59;;;;;;;5.00;4.60;;;6.30;89.30;;;5.00;92.11;98645.69;5023674;28;20557;-77
2021/10/01 05:34:26;;;;;;;6.23;4.50;;;6.30;88.60;;;5.07;91.52;98648.56;5025011;28;20592;-79
2021/10/01 05:36:53;;;;;;;5.30;4.67;;;6.40;88.10;;;5.06;91.02;98645.03;5028334;28;20466;-83
2021/10/01 05:39:21;;;;;;;13.20;5.17;;;6.40;87.60;;;5.08;91.62;98647.56;5034973;28;20541;-85
2021/10/01 05:41:48;;;;;;;4.40;3.80;;;6.40;87.40;;;5.06;91.02;98645.03;5032881;28;20870;-84
2021/10/01 05:44:16;;;;;;;10.23;4.97;;;6.40;87.10;;;5.16;90.68;98646.75;5028118;28;20979;-83
2021/10/01 05:46:45;;;;;;;6.10;4.40;;;6.50;86.90;;;5.18;90.39;98642.03;5025522;28;20465;-83
2021/10/01 05:49:18;;;;;;;5.63;5.00;;;6.50;86.70;;;5.24;91.13;98652.13;5027272;28;20464;-76
2021/10/01 05:51:51;;;;;;;5.77;5.20;;;6.50;86.70;;;5.37;90.11;98649.75;5023379;28;20482;-78
2021/10/01 05:54:23;;;;;;;5.17;4.67;;;6.60;86.20;;;5.36;89.60;98642.72;5020116;28;20487;-80
2021/10/01 05:56:51;;;;;;;5.13;4.63;;;6.70;85.60;;;5.45;90.22;98643.56;5026118;28;20532;-78
2021/10/01 05:59:18;;;;;;;9.90;4.23;;;6.80;85.50;;;5.35;90.14;98642.91;5019649;28;20467;-69
2021/10/01 06:01:47;;;;;;;8.07;5.07;;;6.70;85.90;;;5.44;90.28;98633.03;5015275;28;20497;-71
2021/10/01 06:04:14;;;;;;;6.30;4.43;;;6.80;85.70;;;5.59;90.10;98639.41;5017329;28;20585;-71
2021/10/01 06:06:42;;;;;;;13.97;5.40;;;6.90;85.50;;;6.12;87.91;98649.75;5020401;28;20555;-71
2021/10/01 06:09:11;;;;;;;5.90;4.30;;;7.30;85.00;;;5.90;87.71;98645.91;5023527;28;20451;-71
2021/10/01 06:11:40;;;;;;;5.03;4.53;;;7.30;83.00;;;5.89;88.29;98639.72;5021271;28;20498;-72
2021/10/01 06:14:10;;;;;;;9.57;4.60;;;7.20;83.10;;;6.02;88.94;98638.38;5026701;28;20532;-72
2021/10/01 06:16:38;;;;;;;4.87;4.23;;;7.20;84.60;;;6.07;88.04;98641.38;5036982;28;20574;-71
2021/10/01 06:19:06;;;;;;;5.07;4.67;;;7.30;82.60;;;6.12;86.83;98641.69;5040165;28;20447;-71
2021/10/01 06:21:33;;;;;;;5.43;4.30;;;7.40;82.40;;;6.28;85.83;98632.78;5017892;28;20470;-71
2021/10/01 06:24:00;;;;;;;4.80;4.30;;;7.60;81.70;;;6.39;85.06;98636.94;5022250;28;20454;-71
2021/10/01 06:26:27;;;;;;;4.83;4.50;;;7.70;80.90;;;6.42;85.04;98638.44;5025480;28;20458;-72
2021/10/01 06:28:54;;;;;;;7.20;4.80;;;7.70;80.30;;;6.74;85.84;98633.94;5023777;28;20536;-71
2021/10/01 06:31:21;;;;;;;5.13;4.63;;;7.80;81.60;;;7.04;84.73;98632.22;5027662;28;20490;-70
2021/10/01 06:33:48;;;;;;;7.47;4.47;;;8.10;81.10;;;6.97;83.16;98619.69;5029027;28;20465;-71
2021/10/01 06:36:20;;;;;;;10.13;4.40;;;8.20;79.20;;;7.00;82.84;98633.63;5028048;28;20477;-71
2021/10/01 06:38:47;;;;;;;4.83;4.10;;;8.30;78.20;;;6.99;83.14;98631.13;5028263;28;20875;-71
2021/10/01 06:41:14;;;;;;;5.73;4.97;;;8.20;78.40;;;7.04;82.38;98626.84;5023040;28;20497;-71
2021/10/01 06:43:43;;;;;;;5.53;4.20;;;8.30;77.60;;;7.03;82.21;98625.19;5025679;28;20453;-71
2021/10/01 06:46:18;;;;;;;4.90;4.47;;;8.30;77.40;;;6.98;82.61;98627.59;5022069;28;20838;-72
2021/10/01 06:48:54;;;;;;;13.10;6.33;;;8.30;77.40;;;7.07;82.95;98625.69;5027742;28;20474;-70
2021/10/01 06:51:37;;;;;;;14.43;6.03;;;8.30;77.30;;;7.12;82.70;98623.28;5027816;28;20460;-73
2021/10/01 07:22:26;;;;;;;5.73;5.23;;;9.60;73.10;;;8.34;77.65;98594.63;5026263;28;20458;-75
2021/10/01 07:36:36;;;;;;;8.07;5.20;;;10.10;70.60;;;8.77;76.09;98583.13;5036820;28;20456;-74
2021/10/01 07:39:19;;;;;;;8.23;5.30;;;10.20;70.20;;;9.15;75.80;98600.94;5022434;28;20220;-74
2021/10/01 08:20:41;;;;;;;5.80;4.33;;;11.70;68.10;;;10.65;73.93;98566.69;5020353;28;20463;-72
2021/10/01 08:23:08;;;;;;;3.90;3.60;;;11.80;68.50;;;10.73;73.55;98555.72;5021364;28;20490;-71
2021/10/01 08:25:35;;;;;;;5.23;4.00;;;11.90;68.50;;;10.99;72.23;98562.19;5027457;28;20502;-74
2021/10/01 08:28:02;;;;;;;4.90;3.83;;;12.00;68.50;;;11.08;72.35;98556.59;5026543;28;20497;-73
2021/10/01 08:30:31;;;;;;;4.30;3.67;;;12.20;68.10;;;11.09;72.46;98560.97;5023864;28;20511;-71
2021/10/01 08:32:58;;;;;;;3.37;3.10;;;12.20;68.00;;;11.29;71.90;98556.41;5041734;28;20557;-72
2021/10/01 08:35:26;;;;;;;4.77;3.47;;;12.40;68.00;;;11.64;71.05;98552.69;5021647;28;20565;-73
2021/10/01 08:37:55;;;;;;;3.20;2.90;;;12.60;67.60;;;11.93;70.37;98547.84;5023744;28;20466;-73
2021/10/01 08:40:23;;;;;;;3.10;2.80;;;12.90;67.40;;;11.90;70.22;98551.84;5026300;28;20466;-73
2021/10/01 08:42:52;;;;;;;3.20;2.70;;;12.90;66.90;;;12.04;69.61;98554.53;5027601;28;20466;-73
2021/10/01 08:45:23;;;;;;;5.13;2.80;;;13.10;66.20;;;12.18;68.80;98553.44;5022292;28;20495;-72
2021/10/01 08:47:52;;;;;;;4.50;2.60;;;13.20;65.70;;;12.24;68.64;98546.34;5026242;28;20876;-72
2021/10/01 08:50:22;;;;;;;4.30;2.60;;;13.30;65.30;;;12.33;68.30;98549.66;5027410;28;20466;-72
2021/10/01 08:52:51;;;;;;;5.63;2.57;;;13.40;65.10;;;12.55;67.97;98535.81;5041365;28;20492;-73
2021/10/01 08:55:20;;;;;;;4.00;2.50;;;13.50;65.20;;;12.75;66.64;98541.97;5024868;28;20572;-72
2021/10/01 08:57:47;;;;;;;2.60;1.90;;;13.80;64.30;;;13.03;65.91;98535.34;5022278;28;20535;-73
2021/10/01 09:00:18;;;;;;;6.97;2.57;;;14.00;64.00;;;12.93;65.75;98537.69;5024015;28;20548;-72
2021/10/01 09:02:46;;;;;;;6.90;2.30;;;14.00;63.50;;;13.13;65.56;98534.84;5027635;28;20475;-73
2021/10/01 09:05:15;;;;;;;3.20;1.77;;;14.10;63.20;;;13.04;65.62;98537.00;5028049;28;20482;-73
2021/10/01 09:07:42;;;;;;;3.53;1.80;;;14.20;62.90;;;13.37;64.76;98517.97;5025443;28;20458;-73
2021/10/01 09:10:11;;;;;;;3.00;1.57;;;14.30;62.70;;;13.51;63.88;98518.75;5023381;28;20458;-72
2021/10/01 09:12:39;;;;;;;2.70;1.30;;;14.50;62.40;;;13.40;63.45;98522.94;5026153;28;20524;-73
2021/10/01 09:15:09;;;;;;;1.70;1.50;;;14.50;61.30;;;13.30;63.98;98520.75;5021725;28;20485;-72
2021/10/01 09:17:36;;;;;;;4.33;1.70;;;14.40;61.50;;;13.47;63.65;98515.63;5028637;28;20477;-73
2021/10/01 09:20:06;;;;;;;1.70;1.60;;;14.40;61.20;;;13.45;63.78;98515.84;5024454;28;20458;-73
2021/10/01 09:22:37;;;;;;;1.40;1.30;;;14.50;61.10;;;13.95;61.82;98513.28;5027397;28;20497;-73
2021/10/01 09:25:14;;;;;;;3.50;1.90;;;14.80;60.90;;;13.99;62.20;98506.34;5026430;28;20493;-73
2021/10/01 09:27:43;;;;;;;3.50;1.63;;;15.00;60.60;;;13.74;62.63;98504.53;5021271;28;20542;-73
2021/10/01 09:30:13;;;;;;;1.65;1.50;;;14.80;60.30;;;13.85;62.35;98503.78;5037929;28;20457;-72
2021/10/01 09:32:42;;;;;;;3.10;1.30;;;14.90;60.30;;;13.91;61.40;98493.09;5026929;28;20695;-73
2021/10/01 09:35:15;;;;;;;2.13;1.53;;;14.90;59.90;;;13.82;62.27;98489.84;5024353;28;20462;-75
2021/10/01 09:37:44;;;;;;;1.63;1.10;;;14.90;59.80;;;14.02;61.54;98495.03;5025170;28;20565;-75
2021/10/01 09:40:13;;;;;;;1.50;1.23;;;15.00;59.60;;;14.16;61.08;98487.56;5020890;28;20454;-74
2021/10/01 09:42:45;;;;;;;8.13;1.10;;;15.10;59.30;;;14.29;60.24;98479.25;5027503;28;20928;-72
2021/10/01 09:45:14;;;;;;;2.90;1.37;;;15.30;59.20;;;14.43;59.82;98490.78;5023349;28;20554;-73
2021/10/01 09:47:48;;;;;;;2.23;1.70;;;15.40;58.50;;;14.58;59.10;98487.66;5024851;28;20528;-73
2021/10/01 09:50:21;;;;;;;1.60;1.00;;;15.50;58.10;;;14.57;58.48;98477.00;5042976;28;20464;-74
2021/10/01 09:52:52;;;;;;;1.13;1.00;;;15.60;57.70;;;14.43;58.81;98470.94;5020657;28;20593;-74
2021/10/01 09:55:21;;;;;;;1.60;1.50;;;15.60;57.40;;;14.35;59.76;98469.34;5021603;28;20482;-74
2021/10/01 09:58:05;;;;;;;2.70;1.10;;;15.40;58.00;;;14.51;59.00;98459.72;5020863;28;20474;-74
2021/10/01 10:00:41;;;;;;;1.63;1.17;;;15.50;57.80;;;14.51;58.65;98453.47;5022636;28;20537;-73
2021/10/01 10:03:09;;;;;;;2.37;1.30;;;15.60;57.60;;;14.52;59.12;98455.13;5030551;28;20468;-76
2021/10/01 10:05:56;;;;;;;2.50;1.30;;;15.50;57.70;;;14.64;59.29;98457.88;5019867;28;20578;-74
2021/10/01 10:08:28;;;;;;;1.50;1.30;;;15.60;58.00;;;14.73;58.38;98451.91;5020733;28;20454;-75
2021/10/01 10:10:56;;;;;;;2.77;1.27;;;15.70;57.20;;;14.71;58.48;98455.91;5020830;28;20541;-74
2021/10/01 10:13:43;;;;;;;2.40;1.30;;;15.70;57.30;;;14.97;58.04;98449.25;5026286;28;20461;-73
2021/10/01 10:16:15;;;;;;;2.53;1.20;;;15.90;57.40;;;15.07;57.59;98453.28;5021059;28;20465;-74
2021/10/01 10:18:42;;;;;;;1.87;1.73;;;16.10;57.20;;;15.13;57.80;98449.63;5022677;28;20516;-74
2021/10/01 10:21:10;;;;;;;1.60;1.50;;;16.10;57.40;;;15.25;57.89;98447.75;5019916;28;20462;-73
2021/10/01 10:23:39;;;;;;;1.57;1.47;;;16.20;57.30;;;14.98;58.32;98440.03;5039724;28;20450;-73
2021/10/01 10:26:06;;;;;;;1.80;1.37;;;16.10;57.20;;;15.42;57.50;98449.78;5017625;28;20532;-74
2021/10/01 10:28:34;;;;;;;7.07;1.90;;;16.30;57.40;;;15.37;57.17;98439.59;5023956;28;20489;-74
2021/10/01 10:31:01;;;;;;;1.30;1.20;;;16.30;57.00;;;15.51;57.37;98434.72;5019876;28;20553;-74
2021/10/01 10:33:44;;;;;;;1.43;1.00;;;16.40;57.20;;;15.24;57.74;98439.81;5022564;28;20484;-73
2021/10/01 10:36:36;;;;;;;1.20;1.10;;;16.30;57.00;;;15.50;58.40;98430.34;5020893;28;20882;-73
2021/10/01 10:39:47;;;;;;;1.70;1.47;;;16.40;57.50;;;15.66;57.09;98427.97;5027223;28;20450;-73
2021/10/01 10:42:32;;;;;;;3.57;1.40;;;16.50;57.50;;;15.76;57.16;98419.19;5023105;28;20489;-73
2021/10/01 10:45:11;;;;;;;2.10;1.20;;;16.60;57.00;;;15.78;56.46;98409.72;5014333;28;20548;-73
2021/10/01 10:47:58;;;;;;;1.47;1.00;;;16.80;56.70;;;15.67;55.68;98410.56;5023329;28;20967;-73
2021/10/01 10:50:32;;;;;;;5.10;1.40;;;16.70;56.20;;;15.65;56.22;98407.25;5023346;28;20495;-73
2021/10/01 10:53:26;;;;;;;1.23;1.13;;;16.60;56.20;;;15.72;56.55;98397.06;5022458;28;20466;-73
2021/10/01 10:56:18;;;;;;;2.80;1.77;;;16.70;56.30;;;15.89;55.87;98401.75;5021861;28;21048;-72
2021/10/01 10:58:49;;;;;;;1.67;1.33;;;16.80;56.20;;;15.91;54.94;98394.22;5024568;28;20463;-71
2021/10/01 11:01:40;;;;;;;1.43;1.03;;;16.90;55.70;;;15.91;54.65;98395.00;5024311;28;20462;-73
2021/10/01 11:04:35;;;;;;;1.87;1.23;;;16.90;55.30;;;15.90;54.72;98389.81;5025121;28;20601;-73
2021/10/01 11:07:04;;;;;;;1.20;0.90;;;16.90;55.50;;;15.93;54.14;98383.88;5021705;28;20457;-74
2021/10/01 11:09:34;;;;;;;1.57;0.97;;;16.90;54.70;;;16.10;53.70;98378.50;5022178;28;20494;-74
2021/10/01 11:12:22;;;;;;;1.20;1.10;;;17.00;54.90;;;16.12;54.04;98379.91;5025121;28;20445;-87
2021/10/01 11:15:13;;;;;;;1.87;1.20;;;17.10;55.10;;;16.09;53.40;98376.88;5024050;28;20562;-70
2021/10/01 11:17:41;;;;;;;2.93;1.20;;;17.10;54.60;;;16.19;53.65;98376.22;5020970;28;20493;-73
2021/10/01 11:20:08;;;;;;;2.20;1.20;;;17.00;54.70;;;16.27;53.29;98368.47;5022797;28;21259;-72
2021/10/01 11:22:38;;;;;;;1.17;1.07;;;17.20;54.70;;;16.42;52.74;98365.19;5024215;28;20515;-67
2021/10/01 11:25:16;;;;;;;1.37;1.00;;;17.30;54.50;;;16.39;52.87;98368.41;5022912;28;20482;-71
2021/10/01 11:27:51;;;;;;;3.37;1.47;;;17.40;54.40;;;16.39;52.87;98367.59;5026215;28;20519;-70
2021/10/01 11:30:19;;;;;;;1.40;1.30;;;17.30;54.30;;;16.51;52.17;98367.53;5025171;28;20930;-73
2021/10/01 11:32:46;;;;;;;1.43;1.20;;;17.40;53.90;;;16.56;52.21;98362.16;5024659;28;20473;-72
2021/10/01 11:35:14;;;;;;;1.10;1.00;;;17.50;54.00;;;16.38;51.88;98358.59;5022457;28;20564;-70
2021/10/01 11:37:45;;;;;;;2.57;1.30;;;17.40;53.70;;;16.46;51.87;98345.63;5022088;28;20474;-69
2021/10/01 11:40:19;;;;;;;1.00;1.00;;;17.40;53.80;;;16.75;51.60;98343.66;5020203;28;20475;-72
2021/10/01 11:42:49;;;;;;;1.40;1.30;;;17.60;53.90;;;16.48;51.55;98347.03;5022329;28;20450;-71
2021/10/01 11:45:20;;;;;;;2.80;1.60;;;17.50;53.40;;;16.56;52.40;98346.63;5021195;28;20591;-71
2021/10/01 11:47:54;;;;;;;2.30;1.27;;;17.50;54.00;;;16.73;51.91;98339.50;5021231;28;20471;-70
2021/10/01 11:50:34;;;;;;;2.63;1.50;;;17.60;53.80;;;16.63;51.99;98324.66;5021593;28;20574;-71
2021/10/01 11:53:02;;;;;;;1.70;1.00;;;17.60;53.70;;;16.65;52.15;98327.97;5024909;28;20902;-70
2021/10/01 11:55:33;;;;;;;3.07;1.10;;;17.60;53.70;;;16.80;52.00;98312.91;5043017;28;20478;-71
2021/10/01 11:58:03;;;;;;;1.77;1.33;;;17.70;53.80;;;16.71;51.71;98310.59;5025803;28;20470;-71
2021/10/01 12:00:30;;;;;;;4.03;1.70;;;17.70;53.50;;;16.68;50.87;98311.09;5023682;28;20485;-71
2021/10/01 12:02:57;;;;;;;1.33;1.23;;;17.60;53.00;;;16.80;50.88;98312.91;5018212;28;20888;-71